Time;durP1;ratioP1;P1;durP2;ratioP2;P2;SDS_P1;SDS_P2;PMS_P1;PMS_P2;Temp;Humidity;BMP_temperature;BMP_pressure;BME280_temperature;BME280_humidity;BME280_pressure;Samples;Min_cycle;Max_cycle;Signal;HPM_P1;HPM_P2
2022/03/22 00:00:37;;;;;;;4.13;2.92;;;;;;;20.97;nan;100537.47;5133281;27;20567;-58
2022/03/22 00:03:04;;;;;;;4.20;3.40;;;;;;;20.97;nan;100543.03;5133239;27;20035;-58
2022/03/22 00:05:31;;;;;;;3.90;3.10;;;;;;;21.27;nan;100546.34;5133244;27;20537;-58
2022/03/22 00:07:57;;;;;;;3.58;2.83;;;;;;;22.09;nan;100546.03;5133140;28;20043;-58
2022/03/22 00:10:22;;;;;;;4.20;3.20;;;;;;;22.89;nan;100541.34;5133193;28;20047;-59
2022/03/22 00:12:49;;;;;;;4.45;3.15;;;;;;;23.65;nan;100547.47;5133189;28;20050;-59
2022/03/22 00:15:16;;;;;;;3.67;2.88;;;;;;;23.64;nan;100546.66;5132899;27;20530;-59
2022/03/22 00:17:42;;;;;;;4.43;3.33;;;;;;;23.15;nan;100554.72;5132923;28;20185;-58
2022/03/22 00:20:10;;;;;;;3.92;2.97;;;;;;;22.71;nan;100547.25;5132856;28;20515;-59
2022/03/22 00:22:39;;;;;;;4.18;3.10;;;;;;;22.40;nan;100547.25;5132935;28;20047;-58
2022/03/22 00:25:07;;;;;;;4.03;3.10;;;;;;;22.12;nan;100550.88;5132995;28;20191;-58
2022/03/22 00:27:52;;;;;;;4.10;3.00;;;;;;;21.95;nan;100559.53;5133015;28;20046;-58
2022/03/22 00:30:25;;;;;;;3.88;2.95;;;;;;;21.76;nan;100553.81;5132850;28;20046;-58
2022/03/22 00:32:54;;;;;;;4.35;2.88;;;;;;;21.64;nan;100555.44;5131033;28;20058;-59
2022/03/22 00:35:24;;;;;;;4.30;3.00;;;;;;;21.56;nan;100556.41;5132868;28;20055;-59
2022/03/22 00:37:53;;;;;;;3.72;2.80;;;;;;;21.51;nan;100558.66;5131004;28;20057;-58
2022/03/22 00:40:23;;;;;;;4.65;3.30;;;;;;;21.43;nan;100552.03;5132796;28;20070;-58
2022/03/22 00:42:53;;;;;;;4.47;3.25;;;;;;;21.40;nan;100550.78;5132639;28;20450;-58
2022/03/22 00:45:23;;;;;;;4.28;3.30;;;;;;;21.37;nan;100554.28;5132611;28;20530;-58
2022/03/22 00:47:51;;;;;;;4.15;3.00;;;;;;;21.34;nan;100554.16;5132462;27;20423;-58
2022/03/22 00:50:20;;;;;;;3.88;2.88;;;;;;;21.31;nan;100558.44;5132373;28;20157;-58
2022/03/22 00:52:46;;;;;;;4.47;3.00;;;;;;;21.31;nan;100557.63;5113855;28;20071;-58
2022/03/22 00:55:12;;;;;;;3.85;2.80;;;;;;;21.28;nan;100555.53;5132398;28;20054;-58
2022/03/22 00:57:39;;;;;;;3.72;2.88;;;;;;;21.26;nan;100555.88;5132619;27;20043;-58
2022/03/22 01:00:09;;;;;;;4.28;3.08;;;;;;;21.25;nan;100557.03;5132476;28;20065;-59
2022/03/22 01:02:49;;;;;;;3.40;2.50;;;;;;;21.25;nan;100556.22;5113980;28;20455;-58
2022/03/22 01:05:17;;;;;;;4.07;2.78;;;;;;;21.25;nan;100547.88;5131256;28;20051;-58
2022/03/22 01:07:45;;;;;;;3.47;2.60;;;;;;;21.22;nan;100560.53;5130151;28;20051;-58
2022/03/22 01:10:12;;;;;;;4.43;3.08;;;;;;;21.21;nan;100552.50;5131832;28;20526;-58
2022/03/22 01:12:39;;;;;;;3.65;2.80;;;;;;;21.20;nan;100553.66;5132135;28;20055;-58
2022/03/22 01:15:10;;;;;;;3.67;2.80;;;;;;;21.21;nan;100558.88;5131923;27;20035;-59
2022/03/22 01:17:37;;;;;;;3.58;2.53;;;;;;;21.21;nan;100564.44;5131721;28;20047;-58
2022/03/22 01:20:05;;;;;;;3.72;2.80;;;;;;;21.16;nan;100554.38;5131790;27;20035;-58
2022/03/22 01:22:32;;;;;;;3.22;2.50;;;;;;;21.19;nan;100561.22;5131586;27;20070;-58
2022/03/22 01:24:58;;;;;;;4.15;3.08;;;;;;;21.18;nan;100554.03;5131885;28;20144;-58
2022/03/22 01:27:24;;;;;;;3.97;2.88;;;;;;;21.17;nan;100558.78;5131983;28;20138;-47
2022/03/22 01:29:49;;;;;;;4.38;3.03;;;;;;;21.19;nan;100550.06;5131703;28;20096;-48
2022/03/22 01:32:15;;;;;;;4.05;3.08;;;;;;;21.19;nan;100550.06;5131797;27;20108;-48
2022/03/22 01:34:42;;;;;;;3.90;2.90;;;;;;;21.17;nan;100544.88;5131593;28;20054;-49
2022/03/22 01:37:09;;;;;;;4.30;3.08;;;;;;;21.17;nan;100541.28;5131366;27;20051;-48
2022/03/22 01:39:34;;;;;;;3.90;2.78;;;;;;;21.16;nan;100539.66;5110122;28;20086;-47
2022/03/22 01:42:00;;;;;;;4.32;2.97;;;;;;;21.18;nan;100545.69;5111412;28;20427;-47
2022/03/22 01:44:26;;;;;;;4.13;3.05;;;;;;;21.16;nan;100543.25;5110924;28;20381;-48
2022/03/22 01:46:54;;;;;;;4.03;2.90;;;;;;;21.16;nan;100545.22;5111202;28;20055;-47
2022/03/22 01:49:19;;;;;;;4.55;2.92;;;;;;;21.18;nan;100542.91;5110964;28;20560;-48
2022/03/22 01:51:48;;;;;;;4.05;2.85;;;;;;;21.16;nan;100539.66;5110975;28;20044;-48
2022/03/22 01:54:15;;;;;;;3.75;2.92;;;;;;;21.15;nan;100543.59;5110686;28;20507;-49
2022/03/22 01:56:41;;;;;;;4.13;2.83;;;;;;;21.16;nan;100545.22;5110870;28;20040;-48
2022/03/22 01:59:06;;;;;;;4.00;2.83;;;;;;;21.14;nan;100541.97;5110860;28;20079;-48
2022/03/22 02:07:04;;;;;;;3.50;2.70;;;;;;;21.16;nan;100542.44;5110567;28;20070;-47
2022/03/22 02:09:29;;;;;;;3.95;2.78;;;;;;;21.17;nan;100544.88;5110531;28;20478;-48
2022/03/22 02:11:55;;;;;;;4.03;2.85;;;;;;;21.14;nan;100542.78;5110856;28;20420;-48
2022/03/22 02:14:20;;;;;;;4.65;3.10;;;;;;;21.16;nan;100542.44;5110871;28;20040;-47
2022/03/22 02:16:46;;;;;;;3.85;2.85;;;;;;;21.19;nan;100540.91;5110699;28;20411;-48
2022/03/22 02:19:14;;;;;;;3.53;2.80;;;;;;;21.17;nan;100535.72;5110543;28;20051;-47
2022/03/22 02:21:41;;;;;;;3.97;2.70;;;;;;;21.16;nan;100531.31;5110618;28;20063;-48
2022/03/22 02:24:07;;;;;;;3.25;2.47;;;;;;;21.16;nan;100543.25;5109234;28;20419;-50
2022/03/22 02:26:32;;;;;;;3.20;2.60;;;;;;;21.17;nan;100541.28;5110441;28;20036;-48
2022/03/22 02:28:58;;;;;;;3.75;2.80;;;;;;;21.17;nan;100544.06;5110408;28;20048;-49
2022/03/22 02:31:28;;;;;;;3.92;2.80;;;;;;;21.19;nan;100546.50;5110630;28;20043;-47
2022/03/22 02:33:55;;;;;;;3.70;2.75;;;;;;;21.18;nan;100537.34;5110504;28;20039;-49
2022/03/22 02:36:21;;;;;;;4.57;3.10;;;;;;;21.14;nan;100536.41;5110575;28;20043;-47
2022/03/22 02:38:47;;;;;;;4.75;3.03;;;;;;;21.15;nan;100538.03;5110312;28;20048;-47
2022/03/22 02:41:24;;;;;;;3.65;2.72;;;;;;;21.16;nan;100539.66;5110362;28;20035;-47
2022/03/22 02:43:51;;;;;;;3.50;2.63;;;;;;;21.18;nan;100537.34;5110179;28;20058;-47
2022/03/22 02:46:16;;;;;;;3.92;2.75;;;;;;;21.18;nan;100531.78;5110234;28;20058;-47
2022/03/22 02:48:43;;;;;;;4.05;2.83;;;;;;;21.16;nan;100537.69;5110252;28;20052;-47
2022/03/22 02:51:08;;;;;;;3.50;2.63;;;;;;;21.17;nan;100536.53;5110283;28;20143;-47
2022/03/22 02:53:34;;;;;;;4.20;2.85;;;;;;;21.18;nan;100542.91;5110168;28;20130;-48
2022/03/22 02:55:59;;;;;;;3.85;2.85;;;;;;;21.17;nan;100536.53;5110254;28;20104;-47
2022/03/22 02:58:25;;;;;;;3.95;2.67;;;;;;;21.19;nan;100544.50;5110233;28;20048;-47
2022/03/22 03:00:50;;;;;;;4.88;2.60;;;;;;;21.16;nan;100534.09;5110020;28;20042;-48
2022/03/22 03:03:20;;;;;;;3.78;2.92;;;;;;;21.17;nan;100542.09;5109922;28;20453;-47
2022/03/22 03:05:46;;;;;;;4.07;2.90;;;;;;;21.17;nan;100541.28;5109799;28;20119;-48
2022/03/22 03:08:11;;;;;;;3.80;2.78;;;;;;;21.19;nan;100550.06;5109973;28;20114;-47
2022/03/22 03:10:36;;;;;;;4.30;2.80;;;;;;;21.18;nan;100554.03;5109816;28;20048;-48
2022/03/22 03:13:04;;;;;;;4.40;2.83;;;;;;;21.18;nan;100554.03;5109637;28;20043;-48
2022/03/22 03:15:30;;;;;;;4.10;3.00;;;;;;;21.18;nan;100551.25;5109661;28;20044;-48
2022/03/22 03:17:57;;;;;;;3.92;2.78;;;;;;;21.19;nan;100554.84;5109727;28;20423;-49
2022/03/22 03:20:22;;;;;;;3.53;2.70;;;;;;;21.19;nan;100554.84;5111434;28;20054;-47
2022/03/22 03:22:48;;;;;;;3.70;2.78;;;;;;;21.19;nan;100554.84;5113233;28;20044;-49
2022/03/22 03:25:14;;;;;;;3.53;2.65;;;;;;;21.21;nan;100556.09;5112944;28;20039;-48
2022/03/22 03:27:39;;;;;;;4.30;3.05;;;;;;;21.21;nan;100569.19;5113369;28;20040;-47
2022/03/22 03:30:07;;;;;;;3.83;2.78;;;;;;;21.18;nan;100559.59;5113338;28;20044;-48
2022/03/22 03:32:33;;;;;;;3.72;2.55;;;;;;;21.17;nan;100561.56;5113262;28;20046;-48
2022/03/22 03:34:58;;;;;;;3.88;2.80;;;;;;;21.20;nan;100560.03;5113308;28;20157;-47
2022/03/22 03:37:24;;;;;;;3.15;2.33;;;;;;;21.20;nan;100553.66;5113087;28;20043;-47
2022/03/22 03:39:52;;;;;;;3.10;2.40;;;;;;;21.18;nan;100556.81;5113028;28;20060;-49
2022/03/22 03:42:18;;;;;;;3.35;2.50;;;;;;;21.21;nan;100564.44;5112978;28;20043;-47
2022/03/22 03:47:28;;;;;;;3.50;2.53;;;;;;;21.21;nan;100558.06;5112924;28;20051;-47
2022/03/22 03:50:05;;;;;;;3.38;2.40;;;;;;;21.19;nan;100571.53;5112937;28;20047;-48
2022/03/22 03:52:33;;;;;;;3.47;2.47;;;;;;;21.20;nan;100570.38;5112865;28;20115;-50
2022/03/22 03:55:00;;;;;;;3.45;2.63;;;;;;;21.19;nan;100566.78;5112872;28;20044;-58
2022/03/22 03:57:27;;;;;;;3.78;2.70;;;;;;;21.21;nan;100561.66;5112864;28;20043;-58
2022/03/22 03:59:54;;;;;;;3.78;2.80;;;;;;;21.21;nan;100570.00;5112672;28;20047;-59
2022/03/22 04:02:21;;;;;;;4.00;2.88;;;;;;;21.22;nan;100573.59;5112663;28;20044;-58
2022/03/22 04:04:51;;;;;;;3.85;2.88;;;;;;;21.22;nan;100580.00;5112646;28;20043;-58
2022/03/22 04:07:18;;;;;;;3.67;2.72;;;;;;;21.23;nan;100576.06;5112520;28;20048;-59
2022/03/22 04:09:46;;;;;;;3.53;2.50;;;;;;;21.23;nan;100578.84;5112851;28;20051;-58
2022/03/22 04:12:14;;;;;;;3.92;2.90;;;;;;;21.23;nan;100581.63;5112638;28;20063;-58
2022/03/22 04:14:40;;;;;;;3.72;2.70;;;;;;;21.22;nan;100574.44;5112504;28;20044;-58
2022/03/22 04:17:08;;;;;;;3.70;2.72;;;;;;;21.24;nan;100576.88;5112381;28;20084;-58
2022/03/22 04:19:35;;;;;;;4.07;2.60;;;;;;;21.23;nan;100578.84;5112663;28;20048;-58
2022/03/22 04:22:02;;;;;;;4.32;2.78;;;;;;;21.23;nan;100575.25;5112343;28;20399;-58
2022/03/22 04:24:28;;;;;;;4.20;3.13;;;;;;;21.24;nan;100574.09;5112224;28;21508;-58
2022/03/22 04:26:53;;;;;;;3.70;2.90;;;;;;;21.24;nan;100576.88;5112342;28;20039;-58
2022/03/22 04:34:47;;;;;;;3.80;2.78;;;;;;;21.22;nan;100577.22;5112303;28;20086;-58
2022/03/22 04:37:14;;;;;;;3.33;2.58;;;;;;;21.22;nan;100581.94;5112252;28;20047;-58
2022/03/22 04:39:41;;;;;;;3.83;2.92;;;;;;;21.23;nan;100580.81;5112447;28;20066;-58
2022/03/22 04:42:07;;;;;;;3.75;2.90;;;;;;;21.23;nan;100578.84;5112476;28;20423;-59
2022/03/22 04:44:34;;;;;;;3.80;2.72;;;;;;;21.22;nan;100588.34;5112027;28;20534;-58
2022/03/22 04:47:00;;;;;;;4.05;2.80;;;;;;;21.22;nan;100587.50;5110676;28;20522;-58
2022/03/22 04:49:27;;;;;;;3.95;2.85;;;;;;;21.20;nan;100593.44;5093801;28;20543;-59
2022/03/22 04:57:22;;;;;;;3.35;2.60;;;;;;;21.23;nan;100603.06;5112104;28;20062;-59
2022/03/22 04:59:48;;;;;;;3.72;2.72;;;;;;;21.22;nan;100593.91;5111763;28;20051;-58
2022/03/22 05:02:14;;;;;;;3.42;2.70;;;;;;;21.21;nan;100595.06;5111829;28;20055;-58
2022/03/22 05:04:39;;;;;;;3.58;2.58;;;;;;;21.20;nan;100590.66;5111675;28;20469;-59
2022/03/22 05:07:05;;;;;;;3.35;2.50;;;;;;;21.20;nan;100598.19;5111671;28;20078;-58
2022/03/22 05:09:31;;;;;;;3.88;2.97;;;;;;;21.20;nan;100599.00;5111677;28;20590;-58
2022/03/22 05:11:57;;;;;;;3.65;2.72;;;;;;;21.19;nan;100599.34;5110194;28;20056;-58
2022/03/22 05:14:22;;;;;;;4.05;2.97;;;;;;;21.19;nan;100600.16;5111555;28;20043;-58
2022/03/22 05:16:48;;;;;;;3.58;2.70;;;;;;;21.20;nan;100598.19;5111486;28;20113;-59
2022/03/22 05:19:14;;;;;;;4.22;2.63;;;;;;;21.66;nan;100605.25;5111540;28;20054;-58
2022/03/22 05:21:40;;;;;;;3.55;2.75;;;;;;;22.65;nan;100604.50;5111510;28;20074;-58
2022/03/22 05:24:06;;;;;;;3.75;2.70;;;;;;;23.15;nan;100604.97;5110319;28;20070;-58
2022/03/22 05:26:32;;;;;;;3.83;2.88;;;;;;;22.83;nan;100610.50;5111280;28;20564;-58
2022/03/22 05:28:57;;;;;;;3.20;2.47;;;;;;;22.55;nan;100613.38;5111197;28;20039;-58
2022/03/22 05:31:23;;;;;;;3.80;2.72;;;;;;;22.30;nan;100618.28;5111268;28;20043;-59
2022/03/22 05:33:49;;;;;;;4.20;3.03;;;;;;;22.07;nan;100619.94;5111176;28;20042;-58
2022/03/22 05:36:15;;;;;;;4.07;2.85;;;;;;;21.92;nan;100632.66;5111312;28;20415;-58
2022/03/22 05:38:41;;;;;;;3.50;2.72;;;;;;;21.77;nan;100628.63;5111021;28;20091;-58
2022/03/22 05:41:08;;;;;;;3.40;2.63;;;;;;;21.67;nan;100637.50;5111070;28;20130;-59
2022/03/22 05:43:34;;;;;;;4.28;3.22;;;;;;;21.61;nan;100633.31;5109968;28;20040;-58
2022/03/22 05:46:00;;;;;;;3.80;2.80;;;;;;;21.56;nan;100630.75;5111247;28;20074;-58
2022/03/22 05:48:26;;;;;;;4.43;2.80;;;;;;;21.52;nan;100632.66;5110788;28;20164;-58
2022/03/22 05:50:52;;;;;;;3.80;2.70;;;;;;;21.48;nan;100637.28;5110859;28;20122;-58
2022/03/22 05:53:17;;;;;;;4.57;3.17;;;;;;;21.45;nan;100635.22;5110878;28;20039;-58
2022/03/22 05:55:43;;;;;;;4.57;2.90;;;;;;;21.41;nan;100644.22;5110827;28;20043;-58
2022/03/22 05:58:09;;;;;;;3.55;2.70;;;;;;;21.42;nan;100645.84;5110925;28;20050;-58
2022/03/22 06:00:35;;;;;;;3.85;2.60;;;;;;;21.40;nan;100645.41;5110859;28;20052;-59
2022/03/22 06:03:01;;;;;;;3.85;2.70;;;;;;;21.39;nan;100640.19;5108886;28;20104;-58
2022/03/22 06:05:28;;;;;;;4.07;3.10;;;;;;;21.39;nan;100648.53;5110678;28;20084;-59
2022/03/22 06:07:54;;;;;;;3.83;2.78;;;;;;;21.37;nan;100651.69;5110818;28;20509;-59
2022/03/22 06:10:20;;;;;;;4.55;3.20;;;;;;;21.37;nan;100651.69;5110928;28;20043;-58
2022/03/22 06:12:54;;;;;;;3.60;2.80;;;;;;;21.36;nan;100658.41;5110772;28;20038;-58
2022/03/22 06:15:21;;;;;;;4.10;3.00;;;;;;;21.36;nan;100655.63;5110730;28;20130;-58
2022/03/22 06:17:58;;;;;;;3.65;2.90;;;;;;;21.36;nan;100652.00;5110602;28;20423;-59
2022/03/22 06:20:35;;;;;;;3.60;2.80;;;;;;;21.35;nan;100658.72;5110673;28;20419;-58
2022/03/22 06:23:06;;;;;;;4.03;3.10;;;;;;;21.37;nan;100667.56;5110604;28;20105;-59
2022/03/22 06:25:34;;;;;;;4.32;3.00;;;;;;;21.38;nan;100660.84;5110578;28;20055;-58
2022/03/22 06:28:00;;;;;;;3.67;2.95;;;;;;;21.36;nan;100661.19;5110378;28;20380;-58
2022/03/22 06:30:26;;;;;;;4.35;2.90;;;;;;;21.34;nan;100663.50;5110268;28;20058;-58
2022/03/22 06:32:57;;;;;;;4.05;3.05;;;;;;;21.36;nan;100677.88;5110342;28;20047;-58
2022/03/22 06:35:28;;;;;;;4.28;3.15;;;;;;;21.38;nan;100666.41;5110213;28;20081;-58
2022/03/22 06:37:54;;;;;;;5.45;3.20;;;;;;;21.88;nan;100679.09;5110481;28;20040;-58
2022/03/22 06:40:22;;;;;;;4.68;3.13;;;;;;;22.71;nan;100666.38;5108335;28;20048;-58
2022/03/22 06:42:48;;;;;;;4.03;3.03;;;;;;;23.59;nan;100672.63;5110161;28;20043;-58
2022/03/22 06:45:14;;;;;;;4.50;3.33;;;;;;;23.64;nan;100672.34;5110083;28;20057;-59
2022/03/22 06:47:40;;;;;;;4.05;2.95;;;;;;;23.25;nan;100685.34;5110411;28;20035;-58
2022/03/22 06:50:08;;;;;;;3.78;2.97;;;;;;;22.89;nan;100687.22;5110389;28;20063;-59
2022/03/22 06:52:33;;;;;;;4.43;3.15;;;;;;;22.63;nan;100689.66;5110176;28;20043;-58
2022/03/22 06:54:59;;;;;;;4.20;3.20;;;;;;;22.37;nan;100688.16;5109896;28;20508;-58
2022/03/22 06:57:27;;;;;;;4.50;3.08;;;;;;;22.21;nan;100692.84;5109944;28;20043;-58
2022/03/22 06:59:52;;;;;;;3.75;2.75;;;;;;;22.06;nan;100694.38;5109913;28;20180;-58
2022/03/22 07:02:18;;;;;;;4.47;3.45;;;;;;;21.94;nan;100691.63;5110032;28;20131;-58
2022/03/22 07:04:44;;;;;;;3.67;2.95;;;;;;;21.85;nan;100688.97;5109710;28;20044;-58
2022/03/22 07:07:10;;;;;;;3.67;2.97;;;;;;;21.79;nan;100697.91;5109772;28;20047;-58
2022/03/22 07:09:35;;;;;;;4.20;3.20;;;;;;;21.71;nan;100689.31;5109819;28;20044;-58
2022/03/22 07:12:01;;;;;;;4.00;3.03;;;;;;;21.69;nan;100699.19;5109701;28;20046;-58
2022/03/22 07:14:28;;;;;;;4.18;3.15;;;;;;;21.64;nan;100696.66;5109673;28;20036;-58
2022/03/22 07:16:53;;;;;;;4.40;3.30;;;;;;;21.61;nan;100689.00;5109482;28;20122;-58
2022/03/22 07:19:21;;;;;;;4.47;3.47;;;;;;;21.61;nan;100697.34;5109579;28;20139;-58
2022/03/22 07:21:47;;;;;;;4.55;3.30;;;;;;;21.56;nan;100692.81;5109586;28;20511;-58
2022/03/22 07:24:15;;;;;;;3.80;2.80;;;;;;;21.54;nan;100694.34;5109528;28;20130;-58
2022/03/22 07:26:40;;;;;;;4.95;3.20;;;;;;;21.51;nan;100689.47;5109569;28;20504;-58
2022/03/22 07:29:07;;;;;;;5.07;3.63;;;;;;;21.51;nan;100698.66;5109500;28;20050;-58
2022/03/22 07:31:40;;;;;;;4.25;3.30;;;;;;;21.50;nan;100698.97;5109393;28;20040;-58
2022/03/22 07:34:07;;;;;;;4.18;3.10;;;;;;;21.46;nan;100695.28;5109493;28;20594;-58
2022/03/22 07:36:35;;;;;;;4.63;3.10;;;;;;;21.47;nan;100696.91;5109392;28;20044;-48
2022/03/22 07:39:01;;;;;;;5.38;3.00;;;;;;;21.43;nan;100700.38;5109454;28;20412;-49
2022/03/22 07:41:27;;;;;;;4.70;3.30;;;;;;;21.43;nan;100703.19;5109593;28;20061;-49
2022/03/22 07:43:54;;;;;;;4.38;3.35;;;;;;;21.42;nan;100695.97;5109549;28;20051;-48
2022/03/22 07:46:23;;;;;;;4.30;3.33;;;;;;;21.39;nan;100699.44;5109592;28;20040;-47
2022/03/22 07:48:50;;;;;;;4.28;3.25;;;;;;;21.41;nan;100707.44;5107151;28;20044;-47
2022/03/22 07:54:02;;;;;;;4.32;3.42;;;;;;;21.40;nan;100700.25;5106294;28;20132;-48
2022/03/22 07:56:27;;;;;;;4.90;3.38;;;;;;;21.39;nan;100691.09;5101830;28;20039;-49
2022/03/22 07:58:53;;;;;;;4.70;3.67;;;;;;;21.39;nan;100693.88;5090573;28;20043;-47
2022/03/22 08:01:18;;;;;;;4.13;3.00;;;;;;;21.40;nan;100689.13;5107849;28;20611;-50
2022/03/22 08:03:44;;;;;;;4.45;3.13;;;;;;;21.39;nan;100688.31;5100971;28;20174;-55
2022/03/22 08:06:09;;;;;;;3.92;3.05;;;;;;;21.37;nan;100690.66;5102007;28;20130;-54
2022/03/22 08:08:37;;;;;;;4.97;3.47;;;;;;;21.40;nan;100697.47;5103290;28;20050;-51
2022/03/22 08:11:05;;;;;;;4.13;3.15;;;;;;;21.40;nan;100689.94;5109837;28;20051;-53
2022/03/22 08:13:32;;;;;;;4.88;3.65;;;;;;;21.42;nan;100701.53;5106503;28;20050;-53
2022/03/22 08:15:57;;;;;;;5.20;3.53;;;;;;;21.41;nan;100696.31;5111202;28;20573;-53
2022/03/22 08:18:23;;;;;;;4.13;3.08;;;;;;;21.42;nan;100704.31;5099565;28;20521;-54
2022/03/22 08:20:49;;;;;;;4.30;3.10;;;;;;;21.43;nan;100694.81;5108485;28;20047;-55
2022/03/22 08:23:15;;;;;;;4.10;3.30;;;;;;;21.46;nan;100698.06;5104615;28;20427;-55
2022/03/22 08:25:47;;;;;;;5.63;3.42;;;;;;;21.45;nan;100699.22;5099885;28;20130;-51
2022/03/22 08:28:14;;;;;;;5.22;3.30;;;;;;;21.47;nan;100708.03;5097317;28;20051;-52
2022/03/22 08:30:40;;;;;;;4.22;3.30;;;;;;;21.44;nan;100701.19;5104832;28;20415;-53
2022/03/22 08:33:09;;;;;;;4.90;3.65;;;;;;;21.45;nan;100699.22;5099541;28;20066;-52
2022/03/22 08:35:37;;;;;;;4.93;3.83;;;;;;;21.43;nan;100699.56;5107536;28;20048;-52
2022/03/22 08:38:03;;;;;;;5.82;3.90;;;;;;;21.43;nan;100694.81;5098931;28;20036;-51
2022/03/22 08:40:28;;;;;;;4.88;3.42;;;;;;;21.45;nan;100702.00;5100926;28;20052;-51
2022/03/22 08:42:56;;;;;;;4.50;3.20;;;;;;;21.43;nan;100692.03;5103180;28;20055;-52
2022/03/22 08:45:23;;;;;;;6.13;3.60;;;;;;;21.43;nan;100693.97;5110451;28;20060;-54
2022/03/22 08:47:50;;;;;;;4.25;3.30;;;;;;;21.42;nan;100693.19;5098514;28;20571;-53
2022/03/22 08:50:21;;;;;;;5.32;3.85;;;;;;;21.39;nan;100693.06;5107727;28;20379;-54
2022/03/22 08:52:48;;;;;;;4.75;3.53;;;;;;;21.39;nan;100685.53;5103939;28;20534;-53
2022/03/22 08:55:17;;;;;;;4.70;3.72;;;;;;;21.38;nan;100692.25;5101086;28;20163;-52
2022/03/22 08:57:46;;;;;;;4.53;3.30;;;;;;;21.39;nan;100687.50;5105743;28;20059;-50
2022/03/22 09:00:12;;;;;;;4.45;3.13;;;;;;;21.38;nan;100683.91;5101320;28;20078;-49
2022/03/22 09:02:44;;;;;;;3.92;3.10;;;;;;;21.39;nan;100679.16;5112304;28;20497;-55
2022/03/22 09:07:58;;;;;;;5.40;3.60;;;;;;;21.37;nan;100668.38;5101235;28;20621;-56
2022/03/22 09:10:25;;;;;;;5.82;3.63;;;;;;;21.40;nan;100678.00;5097795;28;20043;-54
2022/03/22 09:12:51;;;;;;;4.13;3.30;;;;;;;21.36;nan;100675.09;5105160;28;20031;-55
2022/03/22 09:15:20;;;;;;;4.75;3.58;;;;;;;21.35;nan;100669.88;5113083;28;20047;-54
2022/03/22 09:17:47;;;;;;;4.45;3.67;;;;;;;21.33;nan;100667.44;5110950;28;20039;-56
2022/03/22 09:20:13;;;;;;;5.35;3.53;;;;;;;21.31;nan;100653.06;5101655;28;20043;-55
2022/03/22 09:22:43;;;;;;;4.22;3.38;;;;;;;21.29;nan;100651.78;5104779;28;20280;-55
2022/03/22 09:25:11;;;;;;;3.85;3.22;;;;;;;21.27;nan;100651.28;5103047;28;20175;-57
2022/03/22 09:27:37;;;;;;;5.75;3.78;;;;;;;21.24;nan;100646.44;5102686;28;20040;-57
2022/03/22 09:30:04;;;;;;;5.20;3.45;;;;;;;21.22;nan;100648.72;5099634;28;20067;-56
2022/03/22 09:32:30;;;;;;;4.55;3.40;;;;;;;21.22;nan;100643.16;5106305;28;20071;-56
2022/03/22 09:34:58;;;;;;;4.68;3.40;;;;;;;21.19;nan;100644.69;5102302;28;20075;-58
2022/03/22 09:37:24;;;;;;;3.95;3.17;;;;;;;21.24;nan;100641.66;5103842;28;20039;-57
2022/03/22 09:39:50;;;;;;;4.35;3.33;;;;;;;21.22;nan;100638.44;5123235;28;20116;-58
2022/03/22 09:42:16;;;;;;;4.20;3.00;;;;;;;21.22;nan;100637.59;5123767;28;20456;-57
2022/03/22 09:44:47;;;;;;;4.88;3.70;;;;;;;21.19;nan;100639.13;5119425;28;20077;-58
2022/03/22 09:47:14;;;;;;;4.40;3.17;;;;;;;21.20;nan;100637.94;5123746;28;20046;-67
2022/03/22 09:49:40;;;;;;;6.57;3.53;;;;;;;21.20;nan;100640.72;5117826;28;20053;-58
2022/03/22 09:52:06;;;;;;;4.70;3.55;;;;;;;21.23;nan;100622.56;5120601;27;20118;-55
2022/03/22 09:54:32;;;;;;;4.65;3.17;;;;;;;21.26;nan;100628.22;5120744;28;20118;-61
2022/03/22 09:56:57;;;;;;;4.50;3.22;;;;;;;21.24;nan;100624.97;5117470;28;20063;-58
2022/03/22 09:59:22;;;;;;;6.07;3.30;;;;;;;21.22;nan;100620.91;5120119;27;20047;-58
2022/03/22 10:01:48;;;;;;;5.38;3.67;;;;;;;21.17;nan;100616.41;5115006;27;20043;-58
2022/03/22 10:04:15;;;;;;;4.40;3.50;;;;;;;21.18;nan;100618.03;5116193;28;20079;-58
2022/03/22 10:06:46;;;;;;;3.97;3.20;;;;;;;21.18;nan;100615.25;5120246;28;20094;-58
2022/03/22 10:09:12;;;;;;;4.35;3.10;;;;;;;21.19;nan;100608.50;5120160;28;20036;-57
2022/03/22 10:11:41;;;;;;;4.50;3.15;;;;;;;21.18;nan;100601.31;5121406;28;20046;-58
2022/03/22 10:14:11;;;;;;;5.05;3.47;;;;;;;21.22;nan;100601.41;5118361;27;20653;-58
2022/03/22 10:16:51;;;;;;;4.50;3.22;;;;;;;21.16;nan;100600.88;5120548;28;20040;-58
2022/03/22 10:19:24;;;;;;;4.40;3.35;;;;;;;21.12;nan;100595.19;5119281;28;20035;-59
2022/03/22 10:21:51;;;;;;;4.63;3.30;;;;;;;21.11;nan;100599.13;5120572;28;20047;-58
2022/03/22 10:24:17;;;;;;;4.95;3.03;;;;;;;21.09;nan;100589.50;5116644;28;20409;-58
2022/03/22 10:26:44;;;;;;;5.45;3.63;;;;;;;21.10;nan;100586.38;5116292;28;20463;-57
2022/03/22 10:29:11;;;;;;;3.85;2.90;;;;;;;21.14;nan;100580.91;5116816;27;20051;-58
2022/03/22 10:31:40;;;;;;;4.53;3.38;;;;;;;21.14;nan;100580.91;5119915;28;20111;-57
2022/03/22 10:34:06;;;;;;;4.57;3.05;;;;;;;21.15;nan;100571.44;5116281;28;20038;-55
2022/03/22 10:36:36;;;;;;;4.18;3.15;;;;;;;21.12;nan;100566.53;5121391;27;20047;-56
2022/03/22 10:39:10;;;;;;;4.45;3.30;;;;;;;21.12;nan;100572.13;5118197;28;20047;-58
2022/03/22 10:41:42;;;;;;;4.82;3.03;;;;;;;21.13;nan;100559.81;5118800;28;20055;-58
2022/03/22 10:44:15;;;;;;;3.85;2.85;;;;;;;21.15;nan;100558.31;4212278;28;10000463;-58
2022/03/22 10:46:42;;;;;;;3.78;2.58;;;;;;;21.16;nan;100551.59;4887556;28;94185;-57
2022/03/22 10:49:10;;;;;;;3.95;2.90;;;;;;;21.16;nan;100543.25;5035164;28;20527;-58
2022/03/22 10:51:49;;;;;;;3.78;3.10;;;;;;;21.16;nan;100542.44;5049765;28;20136;-58
2022/03/22 10:54:20;;;;;;;4.00;3.22;;;;;;;21.16;nan;100546.03;5081383;28;20044;-57
2022/03/22 10:56:49;;;;;;;3.80;2.92;;;;;;;21.16;nan;100545.22;5056175;28;20871;-57
2022/03/22 10:59:16;;;;;;;3.97;2.95;;;;;;;21.16;nan;100543.25;5080097;28;20048;-57
2022/03/22 11:01:43;;;;;;;4.13;3.22;;;;;;;21.17;nan;100542.09;5065354;28;20504;-58
2022/03/22 11:04:10;;;;;;;4.30;3.08;;;;;;;21.21;nan;100533.03;5067435;28;20086;-58
2022/03/22 11:06:38;;;;;;;3.72;2.70;;;;;;;21.24;nan;100533.16;5076428;28;20124;-57
2022/03/22 11:09:05;;;;;;;4.45;3.17;;;;;;;21.24;nan;100529.56;5057647;28;20456;-58
2022/03/22 11:11:31;;;;;;;4.07;3.00;;;;;;;21.20;nan;100523.88;5061599;28;20094;-58
2022/03/22 11:13:57;;;;;;;5.65;3.13;;;;;;;21.22;nan;100516.00;5062508;28;20082;-57
2022/03/22 11:16:27;;;;;;;4.30;3.05;;;;;;;21.25;nan;100514.47;5084563;28;20110;-58
2022/03/22 11:18:54;;;;;;;4.20;3.05;;;;;;;21.23;nan;100512.06;5073509;28;20500;-57
2022/03/22 11:21:19;;;;;;;3.72;2.78;;;;;;;21.25;nan;100509.72;5079548;28;20102;-57
2022/03/22 11:23:47;;;;;;;4.65;3.05;;;;;;;21.23;nan;100506.50;5068238;28;20496;-56
2022/03/22 11:26:18;;;;;;;4.18;3.00;;;;;;;21.22;nan;100504.03;5070860;28;20072;-57
2022/03/22 11:28:46;;;;;;;3.83;3.00;;;;;;;21.22;nan;100492.91;5070390;28;20044;-57
2022/03/22 11:31:18;;;;;;;4.97;3.03;;;;;;;21.21;nan;100488.50;5074600;28;20176;-57
2022/03/22 11:36:48;;;;;;;5.70;3.15;;;;;;;21.22;nan;100477.06;5068693;28;20043;-57
2022/03/22 11:42:15;;;;;;;4.57;3.03;;;;;;;21.20;nan;100479.34;5067751;28;20051;-57
2022/03/22 11:42:21;;;;;;;3.53;2.83;;;;;;;21.21;nan;100469.84;5071142;28;20053;-52
2022/03/22 11:45:02;;;;;;;3.97;2.92;;;;;;;21.21;nan;100461.50;5070188;28;21707;-55
2022/03/22 11:47:43;;;;;;;4.00;2.85;;;;;;;21.23;nan;100459.19;5080259;28;20044;-55
2022/03/22 11:50:13;;;;;;;3.60;2.70;;;;;;;21.28;nan;100456.16;5082256;28;20519;-55
2022/03/22 11:52:43;;;;;;;4.22;2.80;;;;;;;21.27;nan;100454.53;5074307;28;20040;-55
2022/03/22 11:55:10;;;;;;;3.72;2.60;;;;;;;21.27;nan;100434.25;5084290;28;20052;-55
2022/03/22 11:57:46;;;;;;;3.85;2.80;;;;;;;21.29;nan;100443.91;5082388;28;20538;-55
2022/03/22 12:00:15;;;;;;;4.30;2.38;;;;;;;21.88;nan;100437.59;5074862;28;20064;-56
2022/03/22 12:02:43;;;;;;;3.53;2.53;;;;;;;22.86;nan;100434.09;5087814;28;20508;-55
2022/03/22 12:05:08;;;;;;;3.92;2.75;;;;;;;23.57;nan;100431.97;5078312;28;20794;-54
2022/03/22 12:07:37;;;;;;;3.53;2.55;;;;;;;24.18;nan;100431.13;5079817;28;20504;-55
2022/03/22 12:10:13;;;;;;;3.42;2.63;;;;;;;23.82;nan;100412.94;5068035;28;20127;-55